Accueil
METAR-TAF:

METAR-TAF

Aéroports :

Aéroport international de Bergame-Orio al Serio (Le Caravage)

Bergame, Italie

latitude: 45-40N, longitude: 009-42E, altitude: 238 m

Observation

Le bulletin a été fait il y a 35 minutes, à 09:50 UTC
Vent 4 kt de ouest, variant entre ouest/sud-ouest et nord/nord-ouest
Température 7°C
Humidité 45%
Pression 1023 hPa
Visibilité 10 km ou plus
pas de nuages en-dessous de 1500 mètres et pas de cumulonimbus.

METAR: LIME 180950Z 28004KT 240V330 CAVOK 07/M04 Q1023 NOSIG

Heure: 11:25 (10:25 UTC)

Prévision

Le bulletin a été fait il y a 5 heures et 25 minutes, à 05:00 UTC
Prévision valable du 18 à 06 UTC au 19 à 06 UTC
Vent 5 kt de direction variable
Visibilité 10 km ou plus
Nuages épars à une hauteur de 5000 ft

TAF: LIME 180500Z 1806/1906 VRB05KT 9999 SCT050

Observations et prévisions météorologiques de plus de 4000 aéroports (messages METAR et TAF).

Les stations disponibles sont représentées par des disques jaunes et rouges sur la carte.

Passer la souris dessus pour voir le nom de la station.

Cliquer dessus pour voir les observations et prévisions météorologiques.

Pour changer de carte: cliquez sur les boutons verts avec une croix noire pour zoomer, sur le bouton vert avec un tiret pour effectuer un zoom arrière, ou sur les flèches vertes pour les cartes adjacentes.


METAR-TAF: